Time;durP1;ratioP1;P1;durP2;ratioP2;P2;SDS_P1;SDS_P2;PMS_P1;PMS_P2;Temp;Humidity;BMP_temperature;BMP_pressure;BME280_temperature;BME280_humidity;BME280_pressure;Samples;Min_cycle;Max_cycle;Signal;HPM_P1;HPM_P2
2022/01/29 09:18:12;;;;;;;24.13;8.73;;;;;;;3.08;100.00;100441.34;742052;1152;23124;-77
2022/01/29 09:35:49;;;;;;;53.80;22.43;;;;;;;3.17;100.00;100377.79;715979;1174;23176;-74
2022/01/29 09:50:52;;;;;;;57.28;25.65;;;;;;;3.15;100.00;100345.91;715364;1174;114770;-74
2022/01/29 10:06:00;;;;;;;37.73;16.55;;;;;;;3.18;100.00;100301.69;714514;1174;114844;-75
2022/01/29 10:21:09;;;;;;;29.50;13.17;;;;;;;3.11;100.00;100243.32;714670;1174;114215;-75
2022/01/29 10:36:17;;;;;;;33.65;13.30;;;;;;;3.13;100.00;100200.01;714495;1174;114948;-75
2022/01/29 10:51:20;;;;;;;30.20;13.88;;;;;;;3.18;100.00;100153.06;715254;1174;114376;-75
2022/01/29 11:06:32;;;;;;;30.98;13.98;;;;;;;3.28;100.00;100121.30;714329;1167;115608;-75
2022/01/29 11:21:37;;;;;;;38.10;17.85;;;;;;;3.36;100.00;100086.31;715241;1174;114177;-78
2022/01/29 11:36:49;;;;;;;37.93;14.87;;;;;;;3.44;100.00;100037.39;715111;1174;114245;-85
2022/01/29 11:51:55;;;;;;;34.45;15.78;;;;;;;3.34;100.00;99980.09;720065;1174;114099;-81
2022/01/29 12:07:16;;;;;;;25.75;13.68;;;;;;;3.37;100.00;99927.20;716956;1174;114798;-81
2022/01/29 12:22:21;;;;;;;28.30;13.80;;;;;;;3.08;100.00;99865.89;716848;1173;114851;-82
2022/01/29 12:37:24;;;;;;;46.10;24.90;;;;;;;3.14;100.00;99828.38;716345;1174;114457;-81
2022/01/29 12:52:29;;;;;;;31.90;17.10;;;;;;;2.96;100.00;99752.66;716262;1174;114030;-80
2022/01/29 13:07:34;;;;;;;18.13;10.10;;;;;;;2.91;100.00;99728.80;716702;1174;114996;-79
2022/01/29 13:22:42;;;;;;;15.97;9.63;;;;;;;2.87;100.00;99696.25;716251;1174;115584;-79
2022/01/29 13:37:45;;;;;;;13.10;8.00;;;;;;;2.96;100.00;99641.23;716926;1174;114950;-78
2022/01/29 13:52:58;;;;;;;16.15;8.70;;;;;;;2.90;100.00;99582.86;715203;1173;114363;-78
2022/01/29 14:08:21;;;;;;;11.75;6.95;;;;;;;2.85;100.00;99517.59;716063;1174;114692;-77
2022/01/29 14:23:23;;;;;;;22.80;11.57;;;;;;;2.89;100.00;99510.42;714558;1174;114896;-75
2022/01/29 14:38:46;;;;;;;35.40;17.45;;;;;;;2.82;100.00;99445.25;714573;1174;114891;-76
2022/01/29 14:53:50;;;;;;;35.00;17.10;;;;;;;2.86;100.00;99428.55;714417;1173;113930;-76
2022/01/29 15:08:53;;;;;;;17.73;9.20;;;;;;;2.88;100.00;99363.67;714524;1174;114992;-75
2022/01/29 15:23:57;;;;;;;19.35;9.10;;;;;;;2.99;100.00;99268.69;714442;1174;114776;-75
2022/01/29 15:39:01;;;;;;;16.23;10.58;;;;;;;2.91;100.00;99241.70;714329;1174;115102;-77
2022/01/29 15:54:24;;;;;;;16.38;9.13;;;;;;;3.16;100.00;99171.56;714470;1174;115045;-75
2022/01/29 16:09:27;;;;;;;17.45;9.90;;;;;;;3.22;100.00;99136.60;714549;1174;114426;-75
2022/01/29 16:24:30;;;;;;;20.83;12.45;;;;;;;3.40;100.00;99063.55;714632;1174;114095;-76
2022/01/29 16:39:32;;;;;;;25.65;13.30;;;;;;;3.50;100.00;99008.25;714521;1174;114631;-76
2022/01/29 16:54:35;;;;;;;24.65;12.93;;;;;;;3.78;100.00;98981.89;714911;1174;113900;-73
2022/01/29 17:09:37;;;;;;;26.10;14.00;;;;;;;4.05;100.00;98929.52;715552;1174;114006;-73
2022/01/29 17:24:41;;;;;;;105.90;45.85;;;;;;;4.31;100.00;98901.36;715025;1174;114688;-74
2022/01/29 17:39:46;;;;;;;40.25;19.00;;;;;;;4.63;100.00;98827.70;714375;1174;115109;-73
2022/01/29 17:54:52;;;;;;;33.93;13.65;;;;;;;5.02;100.00;98768.95;715255;1174;114752;-74
2022/01/29 18:09:54;;;;;;;28.60;14.38;;;;;;;5.22;100.00;98726.38;714467;1173;115108;-73
2022/01/29 18:24:56;;;;;;;25.33;13.78;;;;;;;5.61;100.00;98676.06;714759;1174;114256;-76
2022/01/29 18:40:08;;;;;;;83.75;51.63;;;;;;;5.96;100.00;98635.48;714778;1174;114815;-76
2022/01/29 18:55:15;;;;;;;29.48;13.80;;;;;;;6.20;100.00;98588.06;714458;1174;114058;-75
2022/01/29 19:10:21;;;;;;;27.90;13.38;;;;;;;6.60;100.00;98557.33;714755;1174;114382;-74
2022/01/29 19:25:24;;;;;;;26.73;13.40;;;;;;;6.86;100.00;98494.75;714285;1174;113930;-77
2022/01/29 19:40:26;;;;;;;34.20;15.20;;;;;;;7.06;100.00;98452.80;714711;1174;113905;-77
2022/01/29 19:55:29;;;;;;;20.38;9.70;;;;;;;7.29;100.00;98429.58;714775;1173;114528;-77
2022/01/29 20:10:33;;;;;;;17.83;8.85;;;;;;;7.45;100.00;98364.38;714968;1173;114668;-74
2022/01/29 20:25:36;;;;;;;19.30;9.65;;;;;;;7.66;100.00;98332.58;715006;1174;113814;-76
2022/01/29 20:40:38;;;;;;;15.08;8.65;;;;;;;7.78;100.00;98295.70;715680;1174;113801;-74
2022/01/29 20:55:41;;;;;;;14.63;7.33;;;;;;;7.89;100.00;98264.04;714334;1174;115527;-75
2022/01/29 21:10:43;;;;;;;9.30;6.15;;;;;;;7.96;100.00;98209.36;714877;1174;114703;-75
2022/01/29 21:25:46;;;;;;;10.75;5.93;;;;;;;8.03;100.00;98158.06;714832;1173;114300;-75
2022/01/29 21:40:56;;;;;;;10.85;6.50;;;;;;;8.19;100.00;98117.19;714988;1174;113923;-77
2022/01/29 21:55:58;;;;;;;9.68;6.15;;;;;;;8.35;100.00;98082.30;715130;1173;115278;-75
2022/01/29 22:11:00;;;;;;;8.13;5.63;;;;;;;8.15;100.00;98069.70;715319;1174;113669;-74
2022/01/29 22:26:02;;;;;;;7.88;3.78;;;;;;;8.30;100.00;98085.42;714371;1174;114676;-75
2022/01/29 22:41:05;;;;;;;8.85;2.70;;;;;;;8.10;100.00;98067.63;714321;1174;114214;-74
2022/01/29 22:56:07;;;;;;;9.23;2.63;;;;;;;8.02;100.00;98112.04;714292;1173;114403;-75
2022/01/29 23:11:18;;;;;;;12.53;3.00;;;;;;;7.81;100.00;98129.13;714380;1174;113724;-74
2022/01/29 23:26:27;;;;;;;10.78;3.53;;;;;;;7.80;96.79;98111.84;714366;1174;115287;-76
2022/01/29 23:42:05;;;;;;;11.25;2.60;;;;;;;7.12;94.47;98134.86;714624;1174;113602;-75
2022/01/29 23:57:08;;;;;;;13.88;2.75;;;;;;;7.12;91.72;98077.50;714621;1174;114656;-76
